createdAt,value
2023-02-13T20:48:32.603Z,1024.38
2023-02-13T20:49:32.574Z,1024.42
2023-02-13T20:50:32.573Z,1024.46
2023-02-13T20:51:32.577Z,1024.44
2023-02-13T20:52:32.583Z,1024.42
2023-02-13T20:53:32.583Z,1024.39
2023-02-13T20:54:32.591Z,1024.42
2023-02-13T20:55:32.585Z,1024.39
2023-02-13T20:56:32.589Z,1024.39
2023-02-13T20:57:32.591Z,1024.4
2023-02-13T20:58:32.597Z,1024.45
2023-02-13T20:59:32.598Z,1024.42
2023-02-13T21:00:32.646Z,1024.42
2023-02-13T21:01:32.634Z,1024.49
2023-02-13T21:02:32.642Z,1024.46
2023-02-13T21:03:32.598Z,1024.48
2023-02-13T21:04:32.632Z,1024.46
2023-02-13T21:05:32.618Z,1024.51
2023-02-13T21:06:32.691Z,1024.5
2023-02-13T21:07:32.611Z,1024.48
2023-02-13T21:08:32.613Z,1024.49
2023-02-13T21:09:32.614Z,1024.51
2023-02-13T21:10:32.617Z,1024.51
2023-02-13T21:11:32.742Z,1024.54
2023-02-13T21:12:32.630Z,1024.52
2023-02-13T21:13:32.628Z,1024.51
2023-02-13T21:14:32.627Z,1024.53
2023-02-13T21:15:32.628Z,1024.48
2023-02-13T21:16:32.723Z,1024.49
2023-02-13T21:17:32.630Z,1024.46
2023-02-13T21:18:32.634Z,1024.53
2023-02-13T21:19:33.086Z,1024.53
2023-02-13T21:20:32.662Z,1024.53
2023-02-13T21:21:32.639Z,1024.53
2023-02-13T21:22:32.679Z,1024.49
2023-02-13T21:23:32.644Z,1024.52
2023-02-13T21:24:32.644Z,1024.5
2023-02-13T21:25:32.674Z,1024.51
2023-02-13T21:26:32.648Z,1024.5
2023-02-13T21:27:32.658Z,1024.53
2023-02-13T21:28:32.646Z,1024.53
2023-02-13T21:29:32.649Z,1024.54
2023-02-13T21:30:32.983Z,1024.56
2023-02-13T21:31:32.769Z,1024.55
2023-02-13T21:32:32.666Z,1024.5
2023-02-13T21:33:32.670Z,1024.52
2023-02-13T21:34:32.674Z,1024.49
2023-02-13T21:35:32.721Z,1024.47
2023-02-13T21:36:32.806Z,1024.51
2023-02-13T21:37:32.676Z,1024.49
2023-02-13T21:38:32.682Z,1024.55
2023-02-13T21:39:32.694Z,1024.59
2023-02-13T21:40:32.696Z,1024.61
2023-02-13T21:41:32.686Z,1024.65
2023-02-13T21:42:32.690Z,1024.64
2023-02-13T21:43:32.696Z,1024.64
2023-02-13T21:44:32.719Z,1024.6
2023-02-13T21:45:32.816Z,1024.63
2023-02-13T21:46:32.751Z,1024.61
2023-02-13T21:47:32.829Z,1024.65
2023-02-13T21:48:32.748Z,1024.62
2023-02-13T21:49:32.746Z,1024.65
2023-02-13T21:50:32.717Z,1024.63
2023-02-13T21:51:32.741Z,1024.63
2023-02-13T21:52:32.760Z,1024.65
2023-02-13T21:53:32.752Z,1024.63
2023-02-13T21:54:33.328Z,1024.67
2023-02-13T21:55:32.733Z,1024.65
2023-02-13T21:56:32.977Z,1024.65
2023-02-13T21:57:33.050Z,1024.67
2023-02-13T21:58:33.354Z,1024.63
2023-02-13T21:59:32.760Z,1024.65
2023-02-13T22:00:32.746Z,1024.68
2023-02-13T22:01:32.914Z,1024.66
